sensor_id;sensor_type;location;lat;lon;timestamp;P1;durP1;ratioP1;P2;durP2;ratioP2
42282;SDS011;28237;47.954;21.730;2022-08-20T00:02:24;7.83;;;5.90;;
42282;SDS011;28237;47.954;21.730;2022-08-20T00:04:49;9.67;;;6.57;;
42282;SDS011;28237;47.954;21.730;2022-08-20T00:07:15;7.45;;;6.22;;
42282;SDS011;28237;47.954;21.730;2022-08-20T00:09:40;7.03;;;5.78;;
42282;SDS011;28237;47.954;21.730;2022-08-20T00:12:07;10.05;;;6.38;;
42282;SDS011;28237;47.954;21.730;2022-08-20T00:14:33;8.35;;;6.07;;
42282;SDS011;28237;47.954;21.730;2022-08-20T00:16:59;9.90;;;7.57;;
42282;SDS011;28237;47.954;21.730;2022-08-20T00:19:24;10.23;;;8.20;;
42282;SDS011;28237;47.954;21.730;2022-08-20T00:21:49;10.37;;;7.67;;
42282;SDS011;28237;47.954;21.730;2022-08-20T00:24:15;9.48;;;7.90;;
42282;SDS011;28237;47.954;21.730;2022-08-20T00:26:40;11.75;;;7.88;;
42282;SDS011;28237;47.954;21.730;2022-08-20T00:29:05;9.63;;;8.63;;
42282;SDS011;28237;47.954;21.730;2022-08-20T00:31:31;8.37;;;7.33;;
42282;SDS011;28237;47.954;21.730;2022-08-20T00:33:56;7.65;;;6.85;;
42282;SDS011;28237;47.954;21.730;2022-08-20T00:36:22;10.27;;;7.90;;
42282;SDS011;28237;47.954;21.730;2022-08-20T00:38:47;7.82;;;6.90;;
42282;SDS011;28237;47.954;21.730;2022-08-20T00:41:18;9.00;;;7.60;;
42282;SDS011;28237;47.954;21.730;2022-08-20T00:43:45;8.75;;;7.20;;
42282;SDS011;28237;47.954;21.730;2022-08-20T00:46:12;7.75;;;6.95;;
42282;SDS011;28237;47.954;21.730;2022-08-20T00:48:39;9.05;;;6.35;;
42282;SDS011;28237;47.954;21.730;2022-08-20T00:51:09;8.52;;;7.15;;
42282;SDS011;28237;47.954;21.730;2022-08-20T00:53:35;8.27;;;6.72;;
42282;SDS011;28237;47.954;21.730;2022-08-20T00:56:00;10.90;;;6.65;;
42282;SDS011;28237;47.954;21.730;2022-08-20T00:58:26;6.78;;;6.15;;
42282;SDS011;28237;47.954;21.730;2022-08-20T01:00:53;7.43;;;6.72;;
42282;SDS011;28237;47.954;21.730;2022-08-20T01:03:18;7.95;;;6.88;;
42282;SDS011;28237;47.954;21.730;2022-08-20T01:05:45;8.85;;;7.50;;
42282;SDS011;28237;47.954;21.730;2022-08-20T01:08:12;9.43;;;7.13;;
42282;SDS011;28237;47.954;21.730;2022-08-20T01:10:39;11.73;;;7.45;;
42282;SDS011;28237;47.954;21.730;2022-08-20T01:13:07;8.38;;;7.63;;
42282;SDS011;28237;47.954;21.730;2022-08-20T01:15:35;7.50;;;6.68;;
42282;SDS011;28237;47.954;21.730;2022-08-20T01:18:02;8.05;;;6.95;;
42282;SDS011;28237;47.954;21.730;2022-08-20T01:20:49;10.40;;;8.13;;
42282;SDS011;28237;47.954;21.730;2022-08-20T01:23:34;7.78;;;6.80;;
42282;SDS011;28237;47.954;21.730;2022-08-20T01:26:04;10.50;;;6.70;;
42282;SDS011;28237;47.954;21.730;2022-08-20T01:29:05;7.45;;;6.35;;
42282;SDS011;28237;47.954;21.730;2022-08-20T01:31:25;7.72;;;6.85;;
42282;SDS011;28237;47.954;21.730;2022-08-20T01:33:52;10.43;;;7.25;;
42282;SDS011;28237;47.954;21.730;2022-08-20T01:36:26;9.35;;;7.35;;
42282;SDS011;28237;47.954;21.730;2022-08-20T01:38:54;8.02;;;7.22;;
42282;SDS011;28237;47.954;21.730;2022-08-20T01:43:48;11.43;;;8.43;;
42282;SDS011;28237;47.954;21.730;2022-08-20T01:46:14;8.77;;;7.10;;
42282;SDS011;28237;47.954;21.730;2022-08-20T01:48:40;8.88;;;7.80;;
42282;SDS011;28237;47.954;21.730;2022-08-20T01:51:18;13.43;;;7.35;;
42282;SDS011;28237;47.954;21.730;2022-08-20T01:53:45;10.32;;;7.82;;
42282;SDS011;28237;47.954;21.730;2022-08-20T01:56:12;8.07;;;6.78;;
42282;SDS011;28237;47.954;21.730;2022-08-20T01:58:39;7.93;;;7.22;;
42282;SDS011;28237;47.954;21.730;2022-08-20T02:01:04;8.93;;;6.47;;
42282;SDS011;28237;47.954;21.730;2022-08-20T02:03:30;8.55;;;6.78;;
42282;SDS011;28237;47.954;21.730;2022-08-20T02:05:58;10.05;;;6.80;;
42282;SDS011;28237;47.954;21.730;2022-08-20T02:08:24;7.95;;;7.15;;
42282;SDS011;28237;47.954;21.730;2022-08-20T02:10:49;11.18;;;7.65;;
42282;SDS011;28237;47.954;21.730;2022-08-20T02:13:15;8.10;;;6.57;;
42282;SDS011;28237;47.954;21.730;2022-08-20T02:15:40;7.90;;;6.67;;
42282;SDS011;28237;47.954;21.730;2022-08-20T02:18:09;16.23;;;8.38;;
42282;SDS011;28237;47.954;21.730;2022-08-20T02:20:34;11.05;;;7.43;;
42282;SDS011;28237;47.954;21.730;2022-08-20T02:23:00;11.27;;;7.70;;
42282;SDS011;28237;47.954;21.730;2022-08-20T02:25:28;7.95;;;7.15;;
42282;SDS011;28237;47.954;21.730;2022-08-20T02:27:54;8.20;;;7.45;;
42282;SDS011;28237;47.954;21.730;2022-08-20T02:30:25;8.88;;;7.93;;
42282;SDS011;28237;47.954;21.730;2022-08-20T02:32:51;10.85;;;7.55;;
42282;SDS011;28237;47.954;21.730;2022-08-20T02:35:16;11.45;;;8.15;;
42282;SDS011;28237;47.954;21.730;2022-08-20T02:37:42;8.05;;;7.18;;
42282;SDS011;28237;47.954;21.730;2022-08-20T02:40:09;8.57;;;7.78;;
42282;SDS011;28237;47.954;21.730;2022-08-20T02:42:35;9.10;;;7.38;;
42282;SDS011;28237;47.954;21.730;2022-08-20T02:45:02;8.45;;;7.20;;
42282;SDS011;28237;47.954;21.730;2022-08-20T02:47:28;8.52;;;7.72;;
42282;SDS011;28237;47.954;21.730;2022-08-20T02:49:53;11.10;;;7.83;;
42282;SDS011;28237;47.954;21.730;2022-08-20T02:52:19;8.35;;;7.57;;
42282;SDS011;28237;47.954;21.730;2022-08-20T02:54:45;9.68;;;7.78;;
42282;SDS011;28237;47.954;21.730;2022-08-20T02:57:15;9.32;;;7.68;;
42282;SDS011;28237;47.954;21.730;2022-08-20T02:59:41;9.35;;;7.40;;
42282;SDS011;28237;47.954;21.730;2022-08-20T03:02:07;9.60;;;7.95;;
42282;SDS011;28237;47.954;21.730;2022-08-20T03:04:33;11.15;;;8.48;;
42282;SDS011;28237;47.954;21.730;2022-08-20T03:06:58;9.13;;;6.83;;
42282;SDS011;28237;47.954;21.730;2022-08-20T03:09:23;13.68;;;6.72;;
42282;SDS011;28237;47.954;21.730;2022-08-20T03:11:49;8.02;;;6.88;;
42282;SDS011;28237;47.954;21.730;2022-08-20T03:14:15;8.45;;;6.82;;
42282;SDS011;28237;47.954;21.730;2022-08-20T03:16:40;10.67;;;7.17;;
42282;SDS011;28237;47.954;21.730;2022-08-20T03:19:05;10.87;;;7.10;;
42282;SDS011;28237;47.954;21.730;2022-08-20T03:21:31;10.30;;;7.25;;
42282;SDS011;28237;47.954;21.730;2022-08-20T03:23:56;8.43;;;7.53;;
42282;SDS011;28237;47.954;21.730;2022-08-20T03:26:22;11.37;;;8.23;;
42282;SDS011;28237;47.954;21.730;2022-08-20T03:28:47;10.20;;;7.80;;
42282;SDS011;28237;47.954;21.730;2022-08-20T03:31:12;13.73;;;8.05;;
42282;SDS011;28237;47.954;21.730;2022-08-20T03:33:39;9.27;;;6.85;;
42282;SDS011;28237;47.954;21.730;2022-08-20T03:36:05;8.98;;;8.07;;
42282;SDS011;28237;47.954;21.730;2022-08-20T03:38:30;7.53;;;6.65;;
42282;SDS011;28237;47.954;21.730;2022-08-20T03:40:55;8.03;;;6.80;;
42282;SDS011;28237;47.954;21.730;2022-08-20T03:43:21;9.05;;;7.03;;
42282;SDS011;28237;47.954;21.730;2022-08-20T03:45:47;9.03;;;6.80;;
42282;SDS011;28237;47.954;21.730;2022-08-20T03:48:14;9.37;;;7.30;;
42282;SDS011;28237;47.954;21.730;2022-08-20T03:50:40;8.27;;;6.93;;
42282;SDS011;28237;47.954;21.730;2022-08-20T03:53:06;8.15;;;7.10;;
42282;SDS011;28237;47.954;21.730;2022-08-20T03:55:32;10.35;;;6.55;;
42282;SDS011;28237;47.954;21.730;2022-08-20T03:57:59;7.97;;;6.57;;
42282;SDS011;28237;47.954;21.730;2022-08-20T04:00:30;8.00;;;6.78;;
42282;SDS011;28237;47.954;21.730;2022-08-20T04:02:56;8.52;;;7.63;;
42282;SDS011;28237;47.954;21.730;2022-08-20T04:05:23;16.42;;;7.43;;
42282;SDS011;28237;47.954;21.730;2022-08-20T04:07:48;8.02;;;7.22;;
42282;SDS011;28237;47.954;21.730;2022-08-20T04:10:14;9.27;;;8.05;;
42282;SDS011;28237;47.954;21.730;2022-08-20T04:12:40;11.52;;;7.65;;
42282;SDS011;28237;47.954;21.730;2022-08-20T04:15:07;12.37;;;6.63;;
42282;SDS011;28237;47.954;21.730;2022-08-20T04:17:32;10.50;;;7.35;;
42282;SDS011;28237;47.954;21.730;2022-08-20T04:19:57;9.10;;;6.87;;
42282;SDS011;28237;47.954;21.730;2022-08-20T04:22:22;9.43;;;6.57;;
42282;SDS011;28237;47.954;21.730;2022-08-20T04:24:48;10.33;;;7.47;;
42282;SDS011;28237;47.954;21.730;2022-08-20T04:27:14;9.18;;;7.10;;
42282;SDS011;28237;47.954;21.730;2022-08-20T04:29:39;11.13;;;6.73;;
42282;SDS011;28237;47.954;21.730;2022-08-20T04:32:07;10.60;;;6.55;;
42282;SDS011;28237;47.954;21.730;2022-08-20T04:34:32;9.75;;;6.78;;
42282;SDS011;28237;47.954;21.730;2022-08-20T04:36:57;7.82;;;7.03;;
42282;SDS011;28237;47.954;21.730;2022-08-20T04:39:22;10.13;;;7.57;;
42282;SDS011;28237;47.954;21.730;2022-08-20T04:41:48;11.30;;;7.40;;
42282;SDS011;28237;47.954;21.730;2022-08-20T04:44:13;7.93;;;6.82;;
42282;SDS011;28237;47.954;21.730;2022-08-20T04:46:38;10.47;;;7.47;;
42282;SDS011;28237;47.954;21.730;2022-08-20T04:49:04;8.90;;;6.80;;
42282;SDS011;28237;47.954;21.730;2022-08-20T04:51:30;9.23;;;6.95;;
42282;SDS011;28237;47.954;21.730;2022-08-20T04:53:55;8.23;;;7.43;;
42282;SDS011;28237;47.954;21.730;2022-08-20T04:56:21;13.23;;;7.88;;
42282;SDS011;28237;47.954;21.730;2022-08-20T04:58:47;7.57;;;6.82;;
42282;SDS011;28237;47.954;21.730;2022-08-20T05:01:14;7.60;;;6.28;;
42282;SDS011;28237;47.954;21.730;2022-08-20T05:03:39;10.63;;;7.50;;
42282;SDS011;28237;47.954;21.730;2022-08-20T05:06:05;10.23;;;6.35;;
42282;SDS011;28237;47.954;21.730;2022-08-20T05:08:31;9.10;;;6.40;;
42282;SDS011;28237;47.954;21.730;2022-08-20T05:10:56;10.45;;;7.03;;
42282;SDS011;28237;47.954;21.730;2022-08-20T05:13:22;7.40;;;6.63;;
42282;SDS011;28237;47.954;21.730;2022-08-20T05:15:47;11.07;;;7.05;;
42282;SDS011;28237;47.954;21.730;2022-08-20T05:18:15;12.35;;;6.97;;
42282;SDS011;28237;47.954;21.730;2022-08-20T05:20:40;8.93;;;7.20;;
42282;SDS011;28237;47.954;21.730;2022-08-20T05:23:07;9.20;;;6.82;;
42282;SDS011;28237;47.954;21.730;2022-08-20T05:25:33;9.20;;;6.65;;
42282;SDS011;28237;47.954;21.730;2022-08-20T05:27:59;10.43;;;6.95;;
42282;SDS011;28237;47.954;21.730;2022-08-20T05:30:25;11.07;;;6.43;;
42282;SDS011;28237;47.954;21.730;2022-08-20T05:32:51;8.27;;;6.40;;
42282;SDS011;28237;47.954;21.730;2022-08-20T05:35:16;8.73;;;5.73;;
42282;SDS011;28237;47.954;21.730;2022-08-20T05:37:42;8.82;;;6.50;;
42282;SDS011;28237;47.954;21.730;2022-08-20T05:40:08;7.83;;;6.37;;
42282;SDS011;28237;47.954;21.730;2022-08-20T05:42:34;13.63;;;7.40;;
42282;SDS011;28237;47.954;21.730;2022-08-20T05:44:59;6.93;;;6.23;;
42282;SDS011;28237;47.954;21.730;2022-08-20T05:47:25;11.13;;;5.97;;
42282;SDS011;28237;47.954;21.730;2022-08-20T05:49:52;9.00;;;6.28;;
42282;SDS011;28237;47.954;21.730;2022-08-20T05:52:18;9.67;;;6.00;;
42282;SDS011;28237;47.954;21.730;2022-08-20T05:54:43;9.97;;;6.17;;
42282;SDS011;28237;47.954;21.730;2022-08-20T05:57:08;9.73;;;5.97;;
42282;SDS011;28237;47.954;21.730;2022-08-20T05:59:33;7.97;;;6.07;;
42282;SDS011;28237;47.954;21.730;2022-08-20T06:02:00;8.07;;;5.55;;
42282;SDS011;28237;47.954;21.730;2022-08-20T06:04:25;7.43;;;6.03;;
42282;SDS011;28237;47.954;21.730;2022-08-20T06:06:59;11.07;;;6.28;;
42282;SDS011;28237;47.954;21.730;2022-08-20T06:09:25;6.88;;;5.78;;
42282;SDS011;28237;47.954;21.730;2022-08-20T06:11:51;6.88;;;5.40;;
42282;SDS011;28237;47.954;21.730;2022-08-20T06:14:16;8.57;;;6.15;;
42282;SDS011;28237;47.954;21.730;2022-08-20T06:16:43;8.35;;;5.43;;
42282;SDS011;28237;47.954;21.730;2022-08-20T06:19:08;9.27;;;5.90;;
42282;SDS011;28237;47.954;21.730;2022-08-20T06:21:33;12.23;;;7.10;;
42282;SDS011;28237;47.954;21.730;2022-08-20T06:23:59;6.43;;;4.73;;
42282;SDS011;28237;47.954;21.730;2022-08-20T06:26:24;7.37;;;6.57;;
42282;SDS011;28237;47.954;21.730;2022-08-20T06:28:49;8.55;;;5.75;;
42282;SDS011;28237;47.954;21.730;2022-08-20T06:31:14;8.23;;;5.50;;
42282;SDS011;28237;47.954;21.730;2022-08-20T06:33:40;8.97;;;5.17;;
42282;SDS011;28237;47.954;21.730;2022-08-20T06:36:05;17.73;;;12.15;;
42282;SDS011;28237;47.954;21.730;2022-08-20T06:38:31;16.13;;;10.77;;
42282;SDS011;28237;47.954;21.730;2022-08-20T06:40:56;8.55;;;7.00;;
42282;SDS011;28237;47.954;21.730;2022-08-20T06:43:22;9.18;;;6.35;;
42282;SDS011;28237;47.954;21.730;2022-08-20T06:45:47;9.80;;;5.20;;
42282;SDS011;28237;47.954;21.730;2022-08-20T06:48:12;10.13;;;5.63;;
42282;SDS011;28237;47.954;21.730;2022-08-20T06:50:40;7.82;;;4.97;;
42282;SDS011;28237;47.954;21.730;2022-08-20T06:53:06;8.45;;;5.38;;
42282;SDS011;28237;47.954;21.730;2022-08-20T06:55:31;4.93;;;4.13;;
42282;SDS011;28237;47.954;21.730;2022-08-20T06:58:02;6.03;;;5.00;;
42282;SDS011;28237;47.954;21.730;2022-08-20T07:00:29;10.27;;;5.72;;
42282;SDS011;28237;47.954;21.730;2022-08-20T07:02:55;5.60;;;4.57;;
42282;SDS011;28237;47.954;21.730;2022-08-20T07:05:23;7.40;;;4.93;;
42282;SDS011;28237;47.954;21.730;2022-08-20T07:07:49;6.77;;;4.73;;
42282;SDS011;28237;47.954;21.730;2022-08-20T07:10:15;7.25;;;4.65;;
42282;SDS011;28237;47.954;21.730;2022-08-20T07:12:41;10.93;;;7.40;;
42282;SDS011;28237;47.954;21.730;2022-08-20T07:15:07;10.02;;;4.70;;
42282;SDS011;28237;47.954;21.730;2022-08-20T07:17:33;5.68;;;4.65;;
42282;SDS011;28237;47.954;21.730;2022-08-20T07:19:58;6.85;;;4.07;;
42282;SDS011;28237;47.954;21.730;2022-08-20T07:22:27;8.10;;;4.60;;
42282;SDS011;28237;47.954;21.730;2022-08-20T07:24:52;5.70;;;4.20;;
42282;SDS011;28237;47.954;21.730;2022-08-20T07:27:21;5.63;;;4.63;;
42282;SDS011;28237;47.954;21.730;2022-08-20T07:29:47;10.10;;;3.95;;
42282;SDS011;28237;47.954;21.730;2022-08-20T07:32:30;8.90;;;4.82;;
42282;SDS011;28237;47.954;21.730;2022-08-20T07:35:01;13.70;;;4.38;;
42282;SDS011;28237;47.954;21.730;2022-08-20T07:37:26;6.65;;;3.92;;
42282;SDS011;28237;47.954;21.730;2022-08-20T07:39:52;4.53;;;4.00;;
42282;SDS011;28237;47.954;21.730;2022-08-20T07:42:17;4.95;;;4.40;;
42282;SDS011;28237;47.954;21.730;2022-08-20T07:44:43;8.07;;;5.47;;
42282;SDS011;28237;47.954;21.730;2022-08-20T07:47:08;5.93;;;4.17;;
42282;SDS011;28237;47.954;21.730;2022-08-20T07:49:36;8.67;;;3.90;;
42282;SDS011;28237;47.954;21.730;2022-08-20T07:52:02;6.35;;;4.40;;
42282;SDS011;28237;47.954;21.730;2022-08-20T07:54:28;4.95;;;4.45;;
42282;SDS011;28237;47.954;21.730;2022-08-20T07:56:53;5.87;;;3.87;;
42282;SDS011;28237;47.954;21.730;2022-08-20T07:59:19;8.50;;;4.30;;
42282;SDS011;28237;47.954;21.730;2022-08-20T08:01:45;5.20;;;4.70;;
42282;SDS011;28237;47.954;21.730;2022-08-20T08:04:10;5.47;;;4.22;;
42282;SDS011;28237;47.954;21.730;2022-08-20T08:06:36;8.85;;;7.60;;
42282;SDS011;28237;47.954;21.730;2022-08-20T08:09:04;8.07;;;5.15;;
42282;SDS011;28237;47.954;21.730;2022-08-20T08:11:31;6.50;;;4.78;;
42282;SDS011;28237;47.954;21.730;2022-08-20T08:13:56;7.40;;;4.82;;
42282;SDS011;28237;47.954;21.730;2022-08-20T08:16:22;5.32;;;4.10;;
42282;SDS011;28237;47.954;21.730;2022-08-20T08:18:49;6.78;;;5.00;;
42282;SDS011;28237;47.954;21.730;2022-08-20T08:21:16;6.38;;;4.15;;
42282;SDS011;28237;47.954;21.730;2022-08-20T08:23:42;5.80;;;3.75;;
42282;SDS011;28237;47.954;21.730;2022-08-20T08:26:08;6.25;;;4.40;;
42282;SDS011;28237;47.954;21.730;2022-08-20T08:28:34;6.03;;;4.22;;
42282;SDS011;28237;47.954;21.730;2022-08-20T08:31:01;7.97;;;4.88;;
42282;SDS011;28237;47.954;21.730;2022-08-20T08:33:28;4.85;;;3.88;;
42282;SDS011;28237;47.954;21.730;2022-08-20T08:38:23;8.35;;;4.00;;
42282;SDS011;28237;47.954;21.730;2022-08-20T08:40:49;4.82;;;3.65;;
42282;SDS011;28237;47.954;21.730;2022-08-20T08:43:18;10.40;;;4.75;;
42282;SDS011;28237;47.954;21.730;2022-08-20T08:45:45;4.78;;;3.88;;
42282;SDS011;28237;47.954;21.730;2022-08-20T08:48:13;8.90;;;3.80;;
42282;SDS011;28237;47.954;21.730;2022-08-20T08:50:39;4.47;;;3.72;;
42282;SDS011;28237;47.954;21.730;2022-08-20T08:53:07;6.07;;;3.63;;
42282;SDS011;28237;47.954;21.730;2022-08-20T08:55:34;4.75;;;4.00;;
42282;SDS011;28237;47.954;21.730;2022-08-20T08:58:00;10.13;;;5.10;;
42282;SDS011;28237;47.954;21.730;2022-08-20T09:00:25;5.03;;;3.40;;
42282;SDS011;28237;47.954;21.730;2022-08-20T09:02:57;10.20;;;4.10;;
42282;SDS011;28237;47.954;21.730;2022-08-20T09:05:26;7.32;;;3.28;;
42282;SDS011;28237;47.954;21.730;2022-08-20T09:07:52;7.05;;;4.05;;
42282;SDS011;28237;47.954;21.730;2022-08-20T09:10:18;5.80;;;3.65;;
42282;SDS011;28237;47.954;21.730;2022-08-20T09:12:43;5.10;;;3.20;;
42282;SDS011;28237;47.954;21.730;2022-08-20T09:15:10;7.25;;;2.92;;
42282;SDS011;28237;47.954;21.730;2022-08-20T09:17:35;6.68;;;3.63;;
42282;SDS011;28237;47.954;21.730;2022-08-20T09:20:01;4.05;;;3.03;;
42282;SDS011;28237;47.954;21.730;2022-08-20T09:22:26;6.50;;;3.87;;
42282;SDS011;28237;47.954;21.730;2022-08-20T09:24:51;7.32;;;4.35;;
42282;SDS011;28237;47.954;21.730;2022-08-20T09:27:17;3.58;;;3.20;;
42282;SDS011;28237;47.954;21.730;2022-08-20T09:29:43;5.15;;;3.50;;
42282;SDS011;28237;47.954;21.730;2022-08-20T09:34:37;5.60;;;3.13;;
42282;SDS011;28237;47.954;21.730;2022-08-20T09:37:03;9.77;;;3.53;;
42282;SDS011;28237;47.954;21.730;2022-08-20T09:39:28;6.47;;;3.30;;
42282;SDS011;28237;47.954;21.730;2022-08-20T09:41:54;4.50;;;3.07;;
42282;SDS011;28237;47.954;21.730;2022-08-20T09:44:19;8.70;;;2.90;;
42282;SDS011;28237;47.954;21.730;2022-08-20T09:46:44;4.10;;;3.70;;
42282;SDS011;28237;47.954;21.730;2022-08-20T09:49:09;4.33;;;3.30;;
42282;SDS011;28237;47.954;21.730;2022-08-20T09:51:35;3.30;;;3.00;;
42282;SDS011;28237;47.954;21.730;2022-08-20T09:54:00;4.47;;;3.57;;
42282;SDS011;28237;47.954;21.730;2022-08-20T09:56:26;4.97;;;3.38;;
42282;SDS011;28237;47.954;21.730;2022-08-20T09:58:53;4.70;;;3.10;;
42282;SDS011;28237;47.954;21.730;2022-08-20T10:01:19;5.95;;;3.20;;
42282;SDS011;28237;47.954;21.730;2022-08-20T10:03:46;3.22;;;3.00;;
42282;SDS011;28237;47.954;21.730;2022-08-20T10:06:12;4.38;;;3.55;;
42282;SDS011;28237;47.954;21.730;2022-08-20T10:08:39;6.05;;;2.75;;
42282;SDS011;28237;47.954;21.730;2022-08-20T10:11:04;3.67;;;2.80;;
42282;SDS011;28237;47.954;21.730;2022-08-20T10:13:29;8.60;;;3.35;;
42282;SDS011;28237;47.954;21.730;2022-08-20T10:15:55;3.53;;;3.23;;
42282;SDS011;28237;47.954;21.730;2022-08-20T10:18:20;4.20;;;3.30;;
42282;SDS011;28237;47.954;21.730;2022-08-20T10:20:46;6.03;;;4.47;;
42282;SDS011;28237;47.954;21.730;2022-08-20T10:23:11;5.03;;;2.97;;
42282;SDS011;28237;47.954;21.730;2022-08-20T10:25:36;5.90;;;3.50;;
42282;SDS011;28237;47.954;21.730;2022-08-20T10:28:02;6.75;;;3.33;;
42282;SDS011;28237;47.954;21.730;2022-08-20T10:30:27;5.00;;;3.60;;
42282;SDS011;28237;47.954;21.730;2022-08-20T10:32:53;4.47;;;3.00;;
42282;SDS011;28237;47.954;21.730;2022-08-20T10:35:18;3.30;;;2.93;;
42282;SDS011;28237;47.954;21.730;2022-08-20T10:37:43;6.50;;;3.70;;
42282;SDS011;28237;47.954;21.730;2022-08-20T10:40:09;7.13;;;3.17;;
42282;SDS011;28237;47.954;21.730;2022-08-20T10:42:35;4.07;;;3.05;;
42282;SDS011;28237;47.954;21.730;2022-08-20T10:45:00;3.50;;;3.10;;
42282;SDS011;28237;47.954;21.730;2022-08-20T10:47:27;6.87;;;3.30;;
42282;SDS011;28237;47.954;21.730;2022-08-20T10:49:53;4.40;;;4.00;;
42282;SDS011;28237;47.954;21.730;2022-08-20T10:52:19;4.63;;;3.28;;
42282;SDS011;28237;47.954;21.730;2022-08-20T10:54:44;4.28;;;3.60;;
42282;SDS011;28237;47.954;21.730;2022-08-20T10:57:17;4.38;;;3.35;;
42282;SDS011;28237;47.954;21.730;2022-08-20T10:59:44;6.93;;;3.97;;
42282;SDS011;28237;47.954;21.730;2022-08-20T11:02:09;4.72;;;3.00;;
42282;SDS011;28237;47.954;21.730;2022-08-20T11:04:35;9.95;;;3.67;;
42282;SDS011;28237;47.954;21.730;2022-08-20T11:07:15;10.18;;;3.33;;
42282;SDS011;28237;47.954;21.730;2022-08-20T11:09:40;5.35;;;3.20;;
42282;SDS011;28237;47.954;21.730;2022-08-20T11:12:06;4.20;;;3.08;;
42282;SDS011;28237;47.954;21.730;2022-08-20T11:14:31;8.10;;;4.40;;
42282;SDS011;28237;47.954;21.730;2022-08-20T11:16:57;10.43;;;4.93;;
42282;SDS011;28237;47.954;21.730;2022-08-20T11:19:22;5.87;;;4.47;;
42282;SDS011;28237;47.954;21.730;2022-08-20T11:21:48;7.27;;;3.50;;
42282;SDS011;28237;47.954;21.730;2022-08-20T11:24:13;5.50;;;3.30;;
42282;SDS011;28237;47.954;21.730;2022-08-20T11:26:38;5.47;;;3.00;;
42282;SDS011;28237;47.954;21.730;2022-08-20T11:29:04;5.18;;;3.10;;
42282;SDS011;28237;47.954;21.730;2022-08-20T11:31:29;4.50;;;3.17;;
42282;SDS011;28237;47.954;21.730;2022-08-20T11:33:54;5.63;;;3.10;;
42282;SDS011;28237;47.954;21.730;2022-08-20T11:36:20;6.33;;;3.37;;
42282;SDS011;28237;47.954;21.730;2022-08-20T11:38:45;4.50;;;3.13;;
42282;SDS011;28237;47.954;21.730;2022-08-20T11:41:10;3.10;;;2.73;;
42282;SDS011;28237;47.954;21.730;2022-08-20T11:43:35;6.00;;;3.47;;
42282;SDS011;28237;47.954;21.730;2022-08-20T11:46:01;4.03;;;3.17;;
42282;SDS011;28237;47.954;21.730;2022-08-20T11:48:26;3.40;;;3.20;;
42282;SDS011;28237;47.954;21.730;2022-08-20T11:50:51;4.57;;;2.87;;
42282;SDS011;28237;47.954;21.730;2022-08-20T11:53:17;5.43;;;3.07;;
42282;SDS011;28237;47.954;21.730;2022-08-20T11:55:42;4.25;;;3.40;;
42282;SDS011;28237;47.954;21.730;2022-08-20T11:58:08;3.83;;;2.83;;
42282;SDS011;28237;47.954;21.730;2022-08-20T12:00:33;10.13;;;4.97;;
42282;SDS011;28237;47.954;21.730;2022-08-20T12:03:01;4.60;;;2.67;;
42282;SDS011;28237;47.954;21.730;2022-08-20T12:05:28;5.57;;;3.20;;
42282;SDS011;28237;47.954;21.730;2022-08-20T12:07:54;3.90;;;2.72;;
42282;SDS011;28237;47.954;21.730;2022-08-20T12:10:19;7.33;;;3.33;;
42282;SDS011;28237;47.954;21.730;2022-08-20T12:12:44;7.25;;;3.97;;
42282;SDS011;28237;47.954;21.730;2022-08-20T12:15:10;5.68;;;3.20;;
42282;SDS011;28237;47.954;21.730;2022-08-20T12:17:35;8.23;;;3.25;;
42282;SDS011;28237;47.954;21.730;2022-08-20T12:20:04;4.85;;;3.55;;
42282;SDS011;28237;47.954;21.730;2022-08-20T12:22:30;3.30;;;2.70;;
42282;SDS011;28237;47.954;21.730;2022-08-20T12:24:55;4.70;;;3.03;;
42282;SDS011;28237;47.954;21.730;2022-08-20T12:27:22;5.10;;;2.78;;
42282;SDS011;28237;47.954;21.730;2022-08-20T12:29:48;5.03;;;3.17;;
42282;SDS011;28237;47.954;21.730;2022-08-20T12:32:14;5.30;;;4.55;;
42282;SDS011;28237;47.954;21.730;2022-08-20T12:34:40;8.07;;;3.77;;
42282;SDS011;28237;47.954;21.730;2022-08-20T12:37:07;3.60;;;2.72;;
42282;SDS011;28237;47.954;21.730;2022-08-20T12:39:33;7.03;;;2.80;;
42282;SDS011;28237;47.954;21.730;2022-08-20T12:41:59;9.75;;;3.97;;
42282;SDS011;28237;47.954;21.730;2022-08-20T12:44:26;21.10;;;3.50;;
42282;SDS011;28237;47.954;21.730;2022-08-20T12:46:52;21.03;;;2.90;;
42282;SDS011;28237;47.954;21.730;2022-08-20T12:49:28;18.13;;;3.65;;
42282;SDS011;28237;47.954;21.730;2022-08-20T12:51:53;21.07;;;3.03;;
42282;SDS011;28237;47.954;21.730;2022-08-20T12:54:19;18.43;;;4.20;;
42282;SDS011;28237;47.954;21.730;2022-08-20T12:56:44;14.53;;;4.33;;
42282;SDS011;28237;47.954;21.730;2022-08-20T12:59:09;21.10;;;3.95;;
42282;SDS011;28237;47.954;21.730;2022-08-20T13:01:35;11.03;;;3.83;;
42282;SDS011;28237;47.954;21.730;2022-08-20T13:04:00;12.90;;;3.33;;
42282;SDS011;28237;47.954;21.730;2022-08-20T13:06:25;14.47;;;2.97;;
42282;SDS011;28237;47.954;21.730;2022-08-20T13:08:50;7.03;;;2.90;;
42282;SDS011;28237;47.954;21.730;2022-08-20T13:11:16;9.60;;;3.17;;
42282;SDS011;28237;47.954;21.730;2022-08-20T13:13:41;5.67;;;2.83;;
42282;SDS011;28237;47.954;21.730;2022-08-20T13:16:07;6.85;;;3.00;;
42282;SDS011;28237;47.954;21.730;2022-08-20T13:18:32;11.33;;;3.67;;
42282;SDS011;28237;47.954;21.730;2022-08-20T13:20:58;11.70;;;3.60;;
42282;SDS011;28237;47.954;21.730;2022-08-20T13:23:23;8.20;;;3.97;;
42282;SDS011;28237;47.954;21.730;2022-08-20T13:25:48;5.03;;;3.23;;
42282;SDS011;28237;47.954;21.730;2022-08-20T13:28:13;8.47;;;3.00;;
42282;SDS011;28237;47.954;21.730;2022-08-20T13:30:39;16.70;;;3.30;;
42282;SDS011;28237;47.954;21.730;2022-08-20T13:33:05;12.77;;;2.72;;
42282;SDS011;28237;47.954;21.730;2022-08-20T13:35:30;11.33;;;2.67;;
42282;SDS011;28237;47.954;21.730;2022-08-20T13:37:55;8.45;;;3.00;;
42282;SDS011;28237;47.954;21.730;2022-08-20T13:40:21;14.73;;;2.83;;
42282;SDS011;28237;47.954;21.730;2022-08-20T13:42:46;8.10;;;3.05;;
42282;SDS011;28237;47.954;21.730;2022-08-20T13:45:11;10.47;;;2.63;;
42282;SDS011;28237;47.954;21.730;2022-08-20T13:47:37;16.50;;;3.00;;
42282;SDS011;28237;47.954;21.730;2022-08-20T13:50:07;6.93;;;3.10;;
42282;SDS011;28237;47.954;21.730;2022-08-20T13:52:34;15.77;;;4.72;;
42282;SDS011;28237;47.954;21.730;2022-08-20T13:54:59;11.25;;;3.15;;
42282;SDS011;28237;47.954;21.730;2022-08-20T13:57:25;12.00;;;2.57;;
42282;SDS011;28237;47.954;21.730;2022-08-20T13:59:52;8.90;;;2.78;;
42282;SDS011;28237;47.954;21.730;2022-08-20T14:02:19;17.40;;;3.15;;
42282;SDS011;28237;47.954;21.730;2022-08-20T14:04:45;12.02;;;3.03;;
42282;SDS011;28237;47.954;21.730;2022-08-20T14:07:14;11.93;;;2.70;;
42282;SDS011;28237;47.954;21.730;2022-08-20T14:09:40;9.25;;;2.33;;
42282;SDS011;28237;47.954;21.730;2022-08-20T14:12:06;7.70;;;2.10;;
42282;SDS011;28237;47.954;21.730;2022-08-20T14:14:31;9.55;;;2.17;;
42282;SDS011;28237;47.954;21.730;2022-08-20T14:16:57;10.02;;;3.20;;
42282;SDS011;28237;47.954;21.730;2022-08-20T14:19:22;15.00;;;2.27;;
42282;SDS011;28237;47.954;21.730;2022-08-20T14:21:47;6.77;;;2.30;;
42282;SDS011;28237;47.954;21.730;2022-08-20T14:24:12;6.80;;;2.57;;
42282;SDS011;28237;47.954;21.730;2022-08-20T14:26:38;4.53;;;2.43;;
42282;SDS011;28237;47.954;21.730;2022-08-20T14:29:03;6.40;;;2.20;;
42282;SDS011;28237;47.954;21.730;2022-08-20T14:31:28;8.40;;;2.70;;
42282;SDS011;28237;47.954;21.730;2022-08-20T14:33:54;12.60;;;2.43;;